Skip Navigation Links
NOAA logo - Click to go to the NOAA homepage
NOAA's National Weather Service
Alaska Aviation Weather Unit
  NWS logo - Click to go to the NWS homepage
Left Navbar Graphic     19 AKDT = 03 GMT

   
NOAA is celebrating 200 years of science, service, and stewardship. Visit the NOAA 200th celebration Web site to learn more.
USA.gov is the U.S. Government's official Web portal to all Federal, state and local government Web resources and services.
Facebook
NWS on Facebook

Important Change Regarding the AAWU Web Presence

 

Over the last several months, the AAWU has been working to navigate its webpages to a nationally supported server. Security, as well as other needs, have necessitated the change.  We have been given an extension for the site changeover while we diligently work at addressing feedback received. As of July 14, 2017, aawu.arh.noaa.gov will be discontinued. The new AAWU web address is weather.gov/aawu. It is now live and will run in-parallel with the old site until it is discontinued on July 14, 2017. Please continue to send any feedback or questions regarding the new webpages to nws.ar.aawu.webauthors@noaa.gov.  Thank you for your patience during this time of transition.
AAWU Home :: Display TAF Add Bookmark
TAF PABT 282331Z 2900/2924 22008KT P6SM VCTS SCT050CB BKN090 BKN150
     FM290600 VRB06KT P6SM SCT050 BKN100=
METAR PABT 282153Z 23006KT 10SM FEW044 SCT070 SCT090 BKN150 21/09 A2984
     RMK AO2 SLP110 T02110089=

METAR PABT 282253Z 22008KT 10SM SCT048 SCT070 BKN090 BKN150 21/10 A2984
     RMK AO2 SLP111 T02060100=

METAR PABT 282353Z 21008KT 10SM FEW048 FEW070 BKN090 BKN150 21/09 A2984
     RMK AO2 SLP110 60000 T02060089 10217 20161 50001=

METAR PABT 290053Z 21007KT 10SM FEW048 FEW070 BKN090 BKN150 22/06 A2983
     RMK AO2 SLP109 T02170061=

METAR PABT 290153Z 24007KT 10SM FEW048 FEW075 BKN150 22/07 A2983 RMK AO2
     SLP105 T02220067=

METAR PABT 290253Z 15004KT 10SM FEW048 SCT075 BKN150 22/07 A2983 RMK AO2
     SLP106 SHRA DSNT N T02170067 56004=


NOAA's National Weather Service
Alaska Aviation Weather Unit
6930 Sand Lake Road
Anchorage, AK 99502-1845
Disclaimer
Credits
Glossary
Privacy Policy
About Us
Career Opportunities
Contact AAWU Internet Services Site last modified: April, 17th 2012